• Join FlightAware (Why Join?)
  • Login
  • US Flag 
03:36PM EDT


 

Airport Tracker/Info


-or-


 

Live Flight TrackerFlight Track Log ✈ BOE2 ✈ 07-Jun-2013 ✈ KMWH - KBFI

Flight Track Log - Related Links

Times and Time Zones

All times are in EDT time to prevent confusion due to time zone crossing. See the BOE2 flight status page for this flight to view local times or setup timezone preferences in your user account.

Time Position Orientation Groundspeed Altitude Reporting Facility
EDT Latitude Longitude Course Direction KTS MPH feet Rate Location/Type
02:50PM 47.1911 -119.4133 248° West 218 251 8,400  Level Seattle Center
02:51PM 47.1689 -119.5100 251° West 254 292 11,200 3,060 Climbing Seattle Center
02:52PM 47.1386 -119.6342 250° West 328 377 14,700 2,340 Climbing Seattle Center
02:53PM 47.1053 -119.7661 250° West 347 399 16,000 540 Climbing Seattle Center
02:54PM 47.0691 -119.8395 251° West  Level FlightAware Approximate
02:54PM 47.0667 -119.9269 251° West 386 444 15,900  Level Seattle Center
02:55PM 47.0306 -120.0686 250° West 373 429 16,000  Climbing Seattle Center
02:56PM 46.9978 -120.2114 251° West 375 432 16,000  Level Seattle Center
02:57PM 46.9633 -120.3508 250° West 359 413 16,000 -60 Level Seattle Center
02:58PM 46.9297 -120.4833 250° West 359 413 15,900  Descending Seattle Center
02:59PM 46.8950 -120.6194 250° West 360 414 16,000  Climbing Seattle Center
03:00PM 46.8778 -120.7592 260° West 354 407 16,000 60 Level Seattle Center
03:01PM 46.9131 -120.8897 292° West 349 402 16,200 60 Climbing Seattle Center
03:02PM 46.9464 -121.0231 290° West 347 399 16,200  Level Seattle Center
03:03PM 46.9883 -121.1828 291° West 350 403 16,200 -60 Level Seattle Center
03:04PM 47.0203 -121.3172 289° West 348 400 16,100  Descending Seattle Center
03:05PM 47.0519 -121.4392 291° West 287 330 16,200  Climbing Seattle Center
03:06PM 47.0828 -121.5436 293° West 282 325 16,200  Level Seattle Center
03:07PM 47.1094 -121.5919 309° West 280 322 16,200  Level Seattle Center
03:07PM 47.1292 -121.6375 302° West 286 329 16,200  Level Seattle Center
03:08PM 47.1533 -121.6917 303° West 289 333 16,200  Level Seattle Center
03:08PM 47.1736 -121.7358 304° West 290 334 16,200 -840 Level Seattle Center
03:09PM 47.2025 -121.7947 306° West 289 333 15,400 -1,380 Descending Seattle Center
03:09PM 47.2211 -121.8389 302° West 282 325 14,800 -1,140 Descending Seattle Center
03:10PM 47.2456 -121.8917 304° West 283 326 14,300 -900 Descending Seattle Center
03:10PM 47.2658 -121.9358 304° West 285 328 13,900 -900 Descending Seattle Center
03:11PM 47.2906 -121.9878 305° West 286 329 13,400 -900 Descending Seattle Center
03:11PM 47.3108 -122.0331 303° West 284 327 13,000 -840 Descending Seattle Center
03:12PM 47.3339 -122.0881 302° West 289 333 12,600 -840 Descending Seattle Center
03:12PM 47.3550 -122.1311 306° West 287 330 12,200 -1,020 Descending Seattle Center
03:13PM 47.3742 -122.1836 298° West 272 313 11,600 -1,680 Descending Seattle Center
03:13PM 47.3889 -122.2356 293° West 265 305 10,500 -1,980 Descending Seattle Center
03:14PM 47.4083 -122.2661 313° West 265 305 9,800 -1,620 Descending Seattle Center
03:14PM 47.4322 -122.3050 312° West 262 302 8,900 -2,160 Descending Seattle Center
03:15PM 47.4756 -122.3733 313° West 266 306 7,000 -2,460 Descending Seattle Center
03:15PM 47.4911 -122.3972 314° West 265 305 6,400 -1,140 Descending Seattle Center
03:16PM 47.5208 -122.4469 312° West 260 299 6,000 -540 Descending Seattle Center
03:16PM 47.5381 -122.4756 312° West 257 296 5,900 -720 Descending Seattle Center
03:17PM 47.5675 -122.5261 311° West 254 292 5,300 -840 Descending Seattle Center
03:17PM 47.5836 -122.5522 312° West 248 285 5,100 -480 Descending Seattle Center
03:18PM 47.6094 -122.5786 325° Northwest 224 258 4,900 -720 Descending Seattle Center
03:18PM 47.6361 -122.5642 20° North 227 261 4,400 -1,140 Descending Seattle Center
03:19PM 47.6669 -122.5506 17° North 213 245 3,800 -1,020 Descending Seattle Center
03:19PM 47.6897 -122.5203 42° Northeast 204 235 3,400 -900 Descending Seattle Center
03:20PM 47.7008 -122.4825 66° East 185 213 2,800 -900 Descending Seattle Center
03:20PM 47.6922 -122.4517 113° Southeast 177 204 2,500 -600 Descending Seattle Center
03:21PM 47.6731 -122.4256 137° Southeast 173 199 2,200 -300 Descending Seattle Center
03:21PM 47.6539 -122.4089 150° Southeast 172 198 2,200  Level Seattle Center
03:22PM 47.6394 -122.3978 153° Southeast 167 192 2,200 -300 Level Seattle Center
03:22PM 47.6172 -122.3778 149° Southeast 152 175 1,900 -540 Descending Seattle Center
03:23PM 47.6053 -122.3675 150° Southeast 124 143 1,600 -720 Descending Seattle Center
03:23PM 47.5889 -122.3531 149° Southeast 123 142 1,200 -840 Descending Seattle Center
03:24PM 47.5736 -122.3389 148° Southeast 143 165 800 -720 Descending Seattle Center
03:24PM 47.5575 -122.3264 152° Southeast 121 139 500 -660 Descending Seattle Center
03:25PM 47.5481 -122.3169 146° Southeast 134 154 200 -840 Descending Seattle Center